createdAt,value
2017-10-23T00:00:08.807Z,9.95
2017-10-23T00:01:08.801Z,9.92
2017-10-23T00:02:08.763Z,9.99
2017-10-23T00:03:08.736Z,9.96
2017-10-23T00:04:08.715Z,9.99
2017-10-23T00:05:08.699Z,10.02
2017-10-23T00:06:08.688Z,9.93
2017-10-23T00:07:08.640Z,9.96
2017-10-23T00:08:08.614Z,9.99
2017-10-23T00:09:08.594Z,9.96
2017-10-23T00:10:08.566Z,9.96
2017-10-23T00:11:08.559Z,9.95
2017-10-23T00:12:08.525Z,9.98
2017-10-23T00:13:08.502Z,9.93
2017-10-23T00:14:08.476Z,9.96
2017-10-23T00:15:08.447Z,9.95
2017-10-23T00:16:08.425Z,9.98
2017-10-23T00:17:08.412Z,9.92
2017-10-23T00:18:08.378Z,9.93
2017-10-23T00:19:08.366Z,10.02
2017-10-23T00:20:08.336Z,9.98
2017-10-23T00:21:08.327Z,9.95
2017-10-23T00:22:08.285Z,9.93
2017-10-23T00:23:08.264Z,9.96
2017-10-23T00:24:08.234Z,9.89
2017-10-23T00:25:08.227Z,9.95
2017-10-23T00:26:08.198Z,9.96
2017-10-23T00:27:08.165Z,9.99
2017-10-23T00:28:08.146Z,9.88
2017-10-23T00:29:08.121Z,9.92
2017-10-23T00:30:08.114Z,9.96
2017-10-23T00:31:08.079Z,9.93
2017-10-23T00:32:08.060Z,9.91
2017-10-23T00:33:08.027Z,9.98
2017-10-23T00:34:08.020Z,9.96
2017-10-23T00:35:07.664Z,9.89
2017-10-23T00:36:07.961Z,9.96
2017-10-23T00:37:07.603Z,9.92
2017-10-23T00:38:07.906Z,9.89
2017-10-23T00:39:07.890Z,9.88
2017-10-23T00:40:07.882Z,9.83
2017-10-23T00:41:07.837Z,9.8
2017-10-23T00:42:07.815Z,9.83
2017-10-23T00:43:07.788Z,9.83
2017-10-23T00:44:07.774Z,9.95
2017-10-23T00:45:07.112Z,9.91
2017-10-23T00:46:07.712Z,9.83
2017-10-23T00:47:07.698Z,9.83
2017-10-23T00:48:07.669Z,9.86
2017-10-23T00:49:07.652Z,9.78
2017-10-23T00:50:07.626Z,9.88
2017-10-23T00:51:07.603Z,9.83
2017-10-23T00:52:07.578Z,9.75
2017-10-23T00:53:07.545Z,9.85
2017-10-23T00:54:07.517Z,9.78
2017-10-23T00:55:07.515Z,9.8
2017-10-23T00:56:07.477Z,9.88
2017-10-23T00:57:07.456Z,9.89
2017-10-23T00:58:07.430Z,9.88
2017-10-23T00:59:07.407Z,9.85
2017-10-23T01:00:07.384Z,9.86
2017-10-23T01:01:07.356Z,9.83
2017-10-23T01:02:07.338Z,9.88
2017-10-23T01:03:07.309Z,9.85
2017-10-23T01:04:07.284Z,9.85
2017-10-23T01:05:07.271Z,9.85
2017-10-23T01:06:07.235Z,9.85
2017-10-23T01:07:07.214Z,9.88
2017-10-23T01:08:07.198Z,9.78
2017-10-23T01:09:07.167Z,9.78
2017-10-23T01:10:07.147Z,9.85
2017-10-23T01:11:07.120Z,9.81
2017-10-23T01:12:07.116Z,9.75
2017-10-23T01:13:07.077Z,9.8
2017-10-23T01:14:07.049Z,9.83
2017-10-23T01:15:07.030Z,9.81
2017-10-23T01:16:07.010Z,9.78
2017-10-23T01:17:06.983Z,9.75
2017-10-23T01:18:06.966Z,9.75
2017-10-23T01:19:06.930Z,9.78
2017-10-23T01:20:06.904Z,9.8
2017-10-23T01:21:06.888Z,9.85
2017-10-23T01:22:06.869Z,9.85
2017-10-23T01:23:06.837Z,9.85
2017-10-23T01:24:06.816Z,9.83
2017-10-23T01:25:06.790Z,9.8
2017-10-23T01:26:06.784Z,9.8
2017-10-23T01:27:06.749Z,9.75
2017-10-23T01:28:06.717Z,9.8
2017-10-23T01:29:06.373Z,9.75
2017-10-23T01:30:06.672Z,9.75
2017-10-23T01:31:06.646Z,9.71
2017-10-23T01:32:06.649Z,9.8
2017-10-23T01:33:06.614Z,9.78
2017-10-23T01:34:06.593Z,9.7
2017-10-23T01:35:06.555Z,9.75
2017-10-23T01:36:06.524Z,9.8
2017-10-23T01:37:06.521Z,9.78
2017-10-23T01:38:06.484Z,9.73
2017-10-23T01:39:06.460Z,9.78
2017-10-23T01:40:06.454Z,9.77
2017-10-23T01:41:06.411Z,9.73
2017-10-23T01:42:06.395Z,9.8
2017-10-23T01:43:06.389Z,9.78
2017-10-23T01:44:06.342Z,9.71
2017-10-23T01:45:06.337Z,9.73
2017-10-23T01:46:06.290Z,9.77
2017-10-23T01:47:06.265Z,9.73
2017-10-23T01:48:06.251Z,9.7
2017-10-23T01:49:06.253Z,9.74
2017-10-23T01:50:06.198Z,9.8
2017-10-23T01:51:05.892Z,9.77
2017-10-23T01:52:06.143Z,9.75
2017-10-23T01:53:05.797Z,9.78
2017-10-23T01:54:06.098Z,9.8
2017-10-23T01:55:06.075Z,9.8
2017-10-23T01:56:06.052Z,9.8
2017-10-23T01:57:06.030Z,9.78
2017-10-23T01:58:06.010Z,9.8
2017-10-23T01:59:05.663Z,9.86
2017-10-23T02:00:05.965Z,9.86
2017-10-23T02:01:05.939Z,9.81
2017-10-23T02:02:05.928Z,9.83
2017-10-23T02:03:05.893Z,9.77
2017-10-23T02:04:05.862Z,9.83
2017-10-23T02:05:05.844Z,9.78
2017-10-23T02:06:05.816Z,9.78
2017-10-23T02:07:05.475Z,9.8
2017-10-23T02:08:05.789Z,9.78
2017-10-23T02:09:05.748Z,9.8
2017-10-23T02:10:05.724Z,9.77
2017-10-23T02:11:05.694Z,9.77
2017-10-23T02:12:05.674Z,9.77
2017-10-23T02:13:05.655Z,9.78
2017-10-23T02:14:05.626Z,9.83
2017-10-23T02:15:05.597Z,9.83
2017-10-23T02:16:05.576Z,9.88
2017-10-23T02:17:05.577Z,9.91
2017-10-23T02:18:05.537Z,9.83
2017-10-23T02:19:05.503Z,9.85
2017-10-23T02:20:05.477Z,9.88
2017-10-23T02:21:05.461Z,9.89
2017-10-23T02:22:05.432Z,9.88
2017-10-23T02:23:05.406Z,9.83
2017-10-23T02:24:05.384Z,9.81
2017-10-23T02:25:05.377Z,9.83
2017-10-23T02:26:05.345Z,9.85
2017-10-23T02:27:05.315Z,9.91
2017-10-23T02:28:05.289Z,9.89
2017-10-23T02:29:05.288Z,9.88
2017-10-23T02:30:05.246Z,9.96
2017-10-23T02:31:05.238Z,9.92
2017-10-23T02:32:05.197Z,9.89
2017-10-23T02:33:05.175Z,9.92
2017-10-23T02:34:05.153Z,9.88
2017-10-23T02:35:05.131Z,9.8
2017-10-23T02:36:05.111Z,9.85
2017-10-23T02:37:04.757Z,9.92
2017-10-23T02:38:05.060Z,9.89
2017-10-23T02:39:05.046Z,9.98
2017-10-23T02:40:05.022Z,9.99
2017-10-23T02:41:05.431Z,9.96
2017-10-23T02:42:05.311Z,9.96
2017-10-23T02:43:04.948Z,9.95
2017-10-23T02:44:04.927Z,9.95
2017-10-23T02:45:04.894Z,9.89
2017-10-23T02:46:04.546Z,9.92
2017-10-23T02:47:04.540Z,9.98
2017-10-23T02:48:04.821Z,9.92
2017-10-23T02:49:04.796Z,10.02
2017-10-23T02:50:04.769Z,9.89
2017-10-23T02:51:04.760Z,9.95
2017-10-23T02:52:04.720Z,9.85
2017-10-23T02:53:04.704Z,9.88
2017-10-23T02:54:04.670Z,9.89
2017-10-23T02:55:04.660Z,9.95
2017-10-23T02:56:04.633Z,9.91
2017-10-23T02:57:04.603Z,9.92
2017-10-23T02:58:04.597Z,9.86
2017-10-23T02:59:04.590Z,9.78
2017-10-23T03:00:04.533Z,9.92
2017-10-23T03:01:04.513Z,9.91
2017-10-23T03:02:04.494Z,9.89
2017-10-23T03:03:04.469Z,9.86
2017-10-23T03:04:04.452Z,9.89
2017-10-23T03:05:04.417Z,9.83
2017-10-23T03:06:04.402Z,9.92
2017-10-23T03:07:04.047Z,9.85
2017-10-23T03:08:04.351Z,9.83
2017-10-23T03:09:04.331Z,9.8
2017-10-23T03:10:04.301Z,9.88
2017-10-23T03:11:04.278Z,9.85
2017-10-23T03:12:04.254Z,9.85
2017-10-23T03:13:04.230Z,9.85
2017-10-23T03:14:03.889Z,9.86
2017-10-23T03:15:04.180Z,9.91
2017-10-23T03:16:04.151Z,9.89
2017-10-23T03:17:03.808Z,9.8
2017-10-23T03:18:04.109Z,9.81
2017-10-23T03:19:04.082Z,9.88
2017-10-23T03:20:04.058Z,9.85
2017-10-23T03:21:04.072Z,9.88
2017-10-23T03:22:04.038Z,9.86
2017-10-23T03:23:03.987Z,9.89
2017-10-23T03:24:03.979Z,9.81
2017-10-23T03:25:03.946Z,9.8
2017-10-23T03:26:03.925Z,9.85
2017-10-23T03:27:03.891Z,9.8
2017-10-23T03:28:03.866Z,9.89
2017-10-23T03:29:03.855Z,9.85
2017-10-23T03:30:03.836Z,9.81
2017-10-23T03:31:03.815Z,9.74
2017-10-23T03:32:03.782Z,9.8
2017-10-23T03:33:03.744Z,9.8
2017-10-23T03:34:03.734Z,9.77
2017-10-23T03:35:03.732Z,9.86
2017-10-23T03:36:03.678Z,9.74
2017-10-23T03:37:03.657Z,9.75
2017-10-23T03:38:03.657Z,9.74
2017-10-23T03:39:03.611Z,9.7
2017-10-23T03:40:03.608Z,9.75
2017-10-23T03:41:03.568Z,9.8
2017-10-23T03:42:03.533Z,9.81
2017-10-23T03:43:03.508Z,9.8
2017-10-23T03:44:03.507Z,9.85
2017-10-23T03:45:03.462Z,9.81
2017-10-23T03:46:03.441Z,9.78
2017-10-23T03:47:03.420Z,9.8
2017-10-23T03:48:03.399Z,9.89
2017-10-23T03:49:03.385Z,9.83
2017-10-23T03:50:03.351Z,9.81
2017-10-23T03:51:03.005Z,9.74
2017-10-23T03:52:03.310Z,9.77
2017-10-23T03:53:03.275Z,9.75
2017-10-23T03:54:03.263Z,9.77
2017-10-23T03:55:03.227Z,9.77
2017-10-23T03:56:03.199Z,9.77
2017-10-23T03:57:03.179Z,9.75
2017-10-23T03:58:03.157Z,9.77
2017-10-23T03:59:03.134Z,9.77
2017-10-23T04:00:03.122Z,9.86
2017-10-23T04:01:03.091Z,9.81
2017-10-23T04:02:03.072Z,9.83
2017-10-23T04:03:03.043Z,9.89
2017-10-23T04:04:03.021Z,9.92
2017-10-23T04:05:02.993Z,9.88
2017-10-23T04:06:02.968Z,9.85
2017-10-23T04:07:02.942Z,9.86
2017-10-23T04:08:02.921Z,9.85
2017-10-23T04:09:02.578Z,9.91
2017-10-23T04:10:02.876Z,9.81
2017-10-23T04:11:02.859Z,9.89
2017-10-23T04:12:02.825Z,9.88
2017-10-23T04:13:02.797Z,9.83
2017-10-23T04:14:02.790Z,9.85
2017-10-23T04:15:02.762Z,9.92
2017-10-23T04:16:02.729Z,9.89
2017-10-23T04:17:02.728Z,9.91
2017-10-23T04:18:02.693Z,9.85
2017-10-23T04:19:02.667Z,9.88
2017-10-23T04:20:02.631Z,9.85
2017-10-23T04:21:02.605Z,9.85
2017-10-23T04:22:02.591Z,9.85
2017-10-23T04:23:02.564Z,9.95
2017-10-23T04:24:02.545Z,9.95
2017-10-23T04:25:02.557Z,9.99
2017-10-23T04:26:02.178Z,10.04
2017-10-23T04:27:02.484Z,10.06
2017-10-23T04:28:02.446Z,10.07
2017-10-23T04:29:02.426Z,10.04
2017-10-23T04:30:02.409Z,10.11
2017-10-23T04:31:02.377Z,10.1
2017-10-23T04:32:02.353Z,10.04
2017-10-23T04:33:02.338Z,10.1
2017-10-23T04:34:02.300Z,10.17
2017-10-23T04:35:02.277Z,10.16
2017-10-23T04:36:02.256Z,10.31
2017-10-23T04:37:02.228Z,10.32
2017-10-23T04:38:01.889Z,10.47
2017-10-23T04:39:02.196Z,10.34
2017-10-23T04:40:02.157Z,10.42
2017-10-23T04:41:02.142Z,10.52
2017-10-23T04:42:02.114Z,10.44
2017-10-23T04:43:02.101Z,10.34
2017-10-23T04:44:02.065Z,10.58
2017-10-23T04:45:02.051Z,10.54
2017-10-23T04:46:02.027Z,10.51
2017-10-23T04:47:02.000Z,10.44
2017-10-23T04:48:01.971Z,10.39
2017-10-23T04:49:01.948Z,10.38
2017-10-23T04:50:01.926Z,10.32
2017-10-23T04:51:01.902Z,10.32
2017-10-23T04:52:01.875Z,10.31
2017-10-23T04:53:01.859Z,10.31
2017-10-23T04:54:01.835Z,10.24
2017-10-23T04:55:01.820Z,10.25
2017-10-23T04:56:01.785Z,10.32
2017-10-23T04:57:01.758Z,10.25
2017-10-23T04:58:01.730Z,10.26
2017-10-23T04:59:01.720Z,10.34
2017-10-23T05:00:01.686Z,10.36
2017-10-23T05:01:01.764Z,10.39
2017-10-23T05:02:01.653Z,10.31
2017-10-23T05:03:01.628Z,10.28
2017-10-23T05:04:01.592Z,10.35
2017-10-23T05:05:01.609Z,10.36
2017-10-23T05:06:01.900Z,10.32
2017-10-23T05:07:01.533Z,10.43
2017-10-23T05:08:01.506Z,10.42
2017-10-23T05:09:01.474Z,10.43
2017-10-23T05:10:01.468Z,10.34
2017-10-23T05:11:01.434Z,10.34
2017-10-23T05:12:01.408Z,10.36
2017-10-23T05:13:01.386Z,10.29
2017-10-23T05:14:01.362Z,10.26
2017-10-23T05:15:01.331Z,10.26
2017-10-23T05:16:01.313Z,10.26
2017-10-23T05:17:01.293Z,10.16
2017-10-23T05:18:01.266Z,10.28
2017-10-23T05:19:01.243Z,10.22
2017-10-23T05:20:01.226Z,10.16
2017-10-23T05:21:01.196Z,10.29
2017-10-23T05:22:01.173Z,10.32
2017-10-23T05:23:00.836Z,10.26
2017-10-23T05:24:01.124Z,10.26
2017-10-23T05:25:01.105Z,10.29
2017-10-23T05:26:01.096Z,10.26
2017-10-23T05:27:01.052Z,10.26
2017-10-23T05:28:01.030Z,10.14
2017-10-23T05:29:01.013Z,10.26
2017-10-23T05:30:00.979Z,10.18
2017-10-23T05:31:00.973Z,10.18
2017-10-23T05:32:00.941Z,10.18
2017-10-23T05:33:00.910Z,10.16
2017-10-23T05:34:00.897Z,10.22
2017-10-23T05:35:00.874Z,10.16
2017-10-23T05:36:00.833Z,10.17
2017-10-23T05:37:00.842Z,10.24
2017-10-23T05:38:00.785Z,10.24
2017-10-23T05:39:00.770Z,10.22
2017-10-23T05:40:00.755Z,10.2
2017-10-23T05:41:00.725Z,10.24
2017-10-23T05:42:00.697Z,10.18
2017-10-23T05:43:00.681Z,10.2
2017-10-23T05:44:00.654Z,10.09
2017-10-23T05:45:00.631Z,10.22
2017-10-23T05:46:00.608Z,10.18
2017-10-23T05:47:00.583Z,10.16
2017-10-23T05:48:00.574Z,10.2
2017-10-23T05:49:00.527Z,10.2
2017-10-23T05:50:00.511Z,10.14
2017-10-23T05:51:00.485Z,10.17
2017-10-23T05:52:00.468Z,10.16
2017-10-23T05:53:00.442Z,10.25
2017-10-23T05:54:00.412Z,10.17
2017-10-23T05:55:00.388Z,10.2
2017-10-23T05:56:00.363Z,10.14
2017-10-23T05:57:00.348Z,10.18
2017-10-23T05:58:00.321Z,10.17
2017-10-23T05:59:00.306Z,10.22
2017-10-23T06:00:00.634Z,10.2
2017-10-23T06:01:00.257Z,10.2
2017-10-23T06:02:00.237Z,10.18
2017-10-23T06:03:00.204Z,10.22
2017-10-23T06:04:00.183Z,10.14
2017-10-23T06:05:00.157Z,10.1
2017-10-23T06:06:00.132Z,10.16
2017-10-23T06:06:59.471Z,10.2
2017-10-23T06:08:00.094Z,10.24
2017-10-23T06:09:00.061Z,10.2
2017-10-23T06:09:59.714Z,10.16
2017-10-23T06:11:00.011Z,10.18
2017-10-23T06:12:00.003Z,10.2
2017-10-23T06:12:59.649Z,10.14
2017-10-23T06:13:59.943Z,10.13
2017-10-23T06:14:59.916Z,10.18
2017-10-23T06:15:59.895Z,10.17
2017-10-23T06:16:59.866Z,10.14
2017-10-23T06:17:59.844Z,10.2
2017-10-23T06:18:59.835Z,10.14
2017-10-23T06:19:59.807Z,10.14
2017-10-23T06:20:59.780Z,10.14
2017-10-23T06:21:59.750Z,10.18
2017-10-23T06:22:59.724Z,10.26
2017-10-23T06:23:59.716Z,10.2
2017-10-23T06:24:59.681Z,10.2
2017-10-23T06:25:59.668Z,10.13
2017-10-23T06:26:59.637Z,10.2
2017-10-23T06:27:59.606Z,10.24
2017-10-23T06:28:59.265Z,10.2
2017-10-23T06:29:59.559Z,10.22
2017-10-23T06:30:59.542Z,10.26
2017-10-23T06:31:59.514Z,10.13
2017-10-23T06:32:59.493Z,10.16
2017-10-23T06:33:59.475Z,10.25
2017-10-23T06:34:59.447Z,10.26
2017-10-23T06:35:59.102Z,10.22
2017-10-23T06:36:59.399Z,10.25
2017-10-23T06:37:59.056Z,10.32
2017-10-23T06:38:59.361Z,10.24
2017-10-23T06:39:59.329Z,10.28
2017-10-23T06:40:59.319Z,10.28
2017-10-23T06:41:59.274Z,10.26
2017-10-23T06:42:59.261Z,10.25
2017-10-23T06:43:59.248Z,10.22
2017-10-23T06:44:59.210Z,10.34
2017-10-23T06:45:59.189Z,10.32
2017-10-23T06:46:59.168Z,10.34
2017-10-23T06:47:59.141Z,10.34
2017-10-23T06:48:59.113Z,10.31
2017-10-23T06:49:59.102Z,10.32
2017-10-23T06:50:59.067Z,10.35
2017-10-23T06:51:59.084Z,10.35
2017-10-23T06:52:59.019Z,10.31
2017-10-23T06:53:58.995Z,10.38
2017-10-23T06:54:58.982Z,10.36
2017-10-23T06:55:58.958Z,10.25
2017-10-23T06:56:58.923Z,10.31
2017-10-23T06:57:58.916Z,10.28
2017-10-23T06:58:58.877Z,10.42
2017-10-23T06:59:58.901Z,10.43
2017-10-23T07:00:58.828Z,10.44
2017-10-23T07:01:58.824Z,10.49
2017-10-23T07:02:58.798Z,10.51
2017-10-23T07:03:58.762Z,10.38
2017-10-23T07:04:58.748Z,10.47
2017-10-23T07:05:58.395Z,10.43
2017-10-23T07:06:58.696Z,10.39
2017-10-23T07:07:58.666Z,10.46
2017-10-23T07:08:58.646Z,10.42
2017-10-23T07:09:58.622Z,10.55
2017-10-23T07:10:58.602Z,10.52
2017-10-23T07:11:58.583Z,10.43
2017-10-23T07:12:58.552Z,10.52
2017-10-23T07:13:58.522Z,10.42
2017-10-23T07:14:58.510Z,10.49
2017-10-23T07:15:58.478Z,10.51
2017-10-23T07:16:58.456Z,10.47
2017-10-23T07:17:58.123Z,10.49
2017-10-23T07:18:58.432Z,10.46
2017-10-23T07:19:58.397Z,10.51
2017-10-23T07:20:58.370Z,10.52
2017-10-23T07:21:58.337Z,10.47
2017-10-23T07:22:58.312Z,10.52
2017-10-23T07:23:57.970Z,10.51
2017-10-23T07:24:58.268Z,10.47
2017-10-23T07:25:58.260Z,10.52
2017-10-23T07:26:58.222Z,10.46
2017-10-23T07:27:58.209Z,10.6
2017-10-23T07:28:58.186Z,10.55
2017-10-23T07:29:58.154Z,10.62
2017-10-23T07:30:58.153Z,10.58
2017-10-23T07:31:58.102Z,10.66
2017-10-23T07:32:58.080Z,10.66
2017-10-23T07:33:58.053Z,10.7
2017-10-23T07:34:58.030Z,10.65
2017-10-23T07:35:58.006Z,10.54
2017-10-23T07:36:57.993Z,10.62
2017-10-23T07:37:57.974Z,10.63
2017-10-23T07:38:57.942Z,10.63
2017-10-23T07:39:57.923Z,10.63
2017-10-23T07:40:57.893Z,10.6
2017-10-23T07:41:57.875Z,10.62
2017-10-23T07:42:57.850Z,10.62
2017-10-23T07:43:57.839Z,10.75
2017-10-23T07:44:57.799Z,10.69
2017-10-23T07:45:57.774Z,10.73
2017-10-23T07:46:57.765Z,10.65
2017-10-23T07:47:57.739Z,10.75
2017-10-23T07:48:57.714Z,10.81
2017-10-23T07:49:57.692Z,10.86
2017-10-23T07:50:57.661Z,10.81
2017-10-23T07:51:57.642Z,10.72
2017-10-23T07:52:57.615Z,10.83
2017-10-23T07:53:57.276Z,10.81
2017-10-23T07:54:57.575Z,10.78
2017-10-23T07:55:57.542Z,10.8
2017-10-23T07:56:57.522Z,10.83
2017-10-23T07:57:57.500Z,10.83
2017-10-23T07:58:57.488Z,10.86
2017-10-23T07:59:57.466Z,10.88
2017-10-23T08:00:57.444Z,10.87
2017-10-23T08:01:57.421Z,10.81
2017-10-23T08:02:57.386Z,10.87
2017-10-23T08:03:57.374Z,10.91
2017-10-23T08:04:57.340Z,10.88
2017-10-23T08:05:57.006Z,10.98
2017-10-23T08:06:57.306Z,10.9
2017-10-23T08:07:57.266Z,10.93
2017-10-23T08:08:57.248Z,10.95
2017-10-23T08:09:57.233Z,10.91
2017-10-23T08:10:57.205Z,10.98
2017-10-23T08:11:57.181Z,10.95
2017-10-23T08:12:57.161Z,10.95
2017-10-23T08:13:57.140Z,10.84
2017-10-23T08:14:57.108Z,10.94
2017-10-23T08:15:57.096Z,10.95
2017-10-23T08:16:57.058Z,10.95
2017-10-23T08:17:57.029Z,11.02
2017-10-23T08:18:56.701Z,10.99
2017-10-23T08:19:56.992Z,10.99
2017-10-23T08:20:56.963Z,10.94
2017-10-23T08:21:56.952Z,11.06
2017-10-23T08:22:56.924Z,11.06
2017-10-23T08:23:56.892Z,11.09
2017-10-23T08:24:56.867Z,11.08
2017-10-23T08:25:56.859Z,11.11
2017-10-23T08:26:56.827Z,11.19
2017-10-23T08:27:56.799Z,11.19
2017-10-23T08:28:56.465Z,11.23
2017-10-23T08:29:56.445Z,11.21
2017-10-23T08:30:56.805Z,11.23
2017-10-23T08:31:56.715Z,11.24
2017-10-23T08:32:56.701Z,11.19
2017-10-23T08:33:56.686Z,11.35
2017-10-23T08:34:56.658Z,11.28
2017-10-23T08:35:56.639Z,11.3
2017-10-23T08:36:56.610Z,11.39
2017-10-23T08:37:56.577Z,11.44
2017-10-23T08:38:56.553Z,11.41
2017-10-23T08:39:56.524Z,11.39
2017-10-23T08:40:56.510Z,11.36
2017-10-23T08:41:56.479Z,11.45
2017-10-23T08:42:56.465Z,11.38
2017-10-23T08:43:56.489Z,11.31
2017-10-23T08:44:56.415Z,11.35
2017-10-23T08:45:56.384Z,11.33
2017-10-23T08:46:56.364Z,11.38
2017-10-23T08:47:56.351Z,11.35
2017-10-23T08:48:56.321Z,11.33
2017-10-23T08:49:55.977Z,11.31
2017-10-23T08:50:56.293Z,11.46
2017-10-23T08:51:56.308Z,11.39
2017-10-23T08:52:55.915Z,11.39
2017-10-23T08:53:56.205Z,11.38
2017-10-23T08:54:56.177Z,11.42
2017-10-23T08:55:56.167Z,11.41
2017-10-23T08:56:56.146Z,11.36
2017-10-23T08:57:56.108Z,11.39
2017-10-23T08:58:56.097Z,11.38
2017-10-23T08:59:56.077Z,11.48
2017-10-23T09:00:56.041Z,11.36
2017-10-23T09:01:56.024Z,11.39
2017-10-23T09:02:56.010Z,11.41
2017-10-23T09:03:55.686Z,11.39
2017-10-23T09:04:55.965Z,11.46
2017-10-23T09:05:55.936Z,11.49
2017-10-23T09:06:55.917Z,11.39
2017-10-23T09:07:55.882Z,11.46
2017-10-23T09:08:55.884Z,11.42
2017-10-23T09:09:55.844Z,11.54
2017-10-23T09:10:55.813Z,11.48
2017-10-23T09:11:55.794Z,11.56
2017-10-23T09:12:55.460Z,11.54
2017-10-23T09:13:55.742Z,11.56
2017-10-23T09:14:55.733Z,11.64
2017-10-23T09:15:55.713Z,11.54
2017-10-23T09:16:55.677Z,11.56
2017-10-23T09:17:55.657Z,11.72
2017-10-23T09:18:55.323Z,11.72
2017-10-23T09:19:55.612Z,11.75
2017-10-23T09:20:55.589Z,11.72
2017-10-23T09:21:55.568Z,11.75
2017-10-23T09:22:55.550Z,11.74
2017-10-23T09:23:55.529Z,11.69
2017-10-23T09:24:55.516Z,11.78
2017-10-23T09:25:55.485Z,11.78
2017-10-23T09:26:55.464Z,11.88
2017-10-23T09:27:55.432Z,11.84
2017-10-23T09:28:55.413Z,11.9
2017-10-23T09:29:55.387Z,11.9
2017-10-23T09:30:55.040Z,11.94
2017-10-23T09:31:55.344Z,11.88
2017-10-23T09:32:55.319Z,11.87
2017-10-23T09:33:55.023Z,11.85
2017-10-23T09:34:54.954Z,11.98
2017-10-23T09:35:55.252Z,11.88
2017-10-23T09:36:55.229Z,11.98
2017-10-23T09:37:55.195Z,11.88
2017-10-23T09:38:55.187Z,11.96
2017-10-23T09:39:55.173Z,12.04
2017-10-23T09:40:55.131Z,12
2017-10-23T09:41:55.110Z,11.88
2017-10-23T09:42:55.099Z,11.9
2017-10-23T09:43:55.058Z,11.97
2017-10-23T09:44:55.043Z,11.98
2017-10-23T09:45:55.031Z,11.94
2017-10-23T09:46:55.007Z,12
2017-10-23T09:47:54.973Z,11.97
2017-10-23T09:48:54.642Z,11.97
2017-10-23T09:49:54.936Z,11.98
2017-10-23T09:50:54.906Z,11.98
2017-10-23T09:51:54.896Z,11.98
2017-10-23T09:52:54.864Z,12
2017-10-23T09:53:54.845Z,11.94
2017-10-23T09:54:54.817Z,11.96
2017-10-23T09:55:54.795Z,11.96
2017-10-23T09:56:54.774Z,11.93
2017-10-23T09:57:54.781Z,11.97
2017-10-23T09:58:54.725Z,11.97
2017-10-23T09:59:54.696Z,11.98
2017-10-23T10:00:54.678Z,12.04
2017-10-23T10:01:54.656Z,12.08
2017-10-23T10:02:54.635Z,12.07
2017-10-23T10:03:54.303Z,12.12
2017-10-23T10:04:54.581Z,12.13
2017-10-23T10:05:54.266Z,12.07
2017-10-23T10:06:54.546Z,12.19
2017-10-23T10:07:54.201Z,12.21
2017-10-23T10:08:54.492Z,12.26
2017-10-23T10:09:54.491Z,12.31
2017-10-23T10:10:54.455Z,12.41
2017-10-23T10:11:54.428Z,12.4
2017-10-23T10:12:54.408Z,12.41
2017-10-23T10:13:54.384Z,12.49
2017-10-23T10:14:54.372Z,12.56
2017-10-23T10:15:54.018Z,12.55
2017-10-23T10:16:54.317Z,12.61
2017-10-23T10:17:54.297Z,12.54
2017-10-23T10:18:54.279Z,12.58
2017-10-23T10:19:54.265Z,12.51
2017-10-23T10:20:54.225Z,12.63
2017-10-23T10:21:54.215Z,12.7
2017-10-23T10:22:54.175Z,12.73
2017-10-23T10:23:54.160Z,12.84
2017-10-23T10:24:54.135Z,12.85
2017-10-23T10:25:54.108Z,12.95
2017-10-23T10:26:54.093Z,12.88
2017-10-23T10:27:54.067Z,12.92
2017-10-23T10:28:54.248Z,12.95
2017-10-23T10:29:54.026Z,13.12
2017-10-23T10:30:54.007Z,13.16
2017-10-23T10:31:54.041Z,13.16
2017-10-23T10:32:53.981Z,13.28
2017-10-23T10:33:53.978Z,13.27
2017-10-23T10:34:53.927Z,13.28
2017-10-23T10:35:53.893Z,13.32
2017-10-23T10:36:53.868Z,13.43
2017-10-23T10:37:53.848Z,13.44
2017-10-23T10:38:53.824Z,13.5
2017-10-23T10:39:53.813Z,13.55
2017-10-23T10:40:53.780Z,13.55
2017-10-23T10:41:53.771Z,13.68
2017-10-23T10:42:53.756Z,13.68
2017-10-23T10:43:53.729Z,13.76
2017-10-23T10:44:53.701Z,13.76
2017-10-23T10:45:53.678Z,13.86
2017-10-23T10:46:53.678Z,13.9
2017-10-23T10:47:53.658Z,13.87
2017-10-23T10:48:53.616Z,13.81
2017-10-23T10:49:53.591Z,13.81
2017-10-23T10:50:53.566Z,13.73
2017-10-23T10:51:53.559Z,13.8
2017-10-23T10:52:53.520Z,13.8
2017-10-23T10:53:53.518Z,13.8
2017-10-23T10:54:53.478Z,13.79
2017-10-23T10:55:53.462Z,13.75
2017-10-23T10:56:53.442Z,13.69
2017-10-23T10:57:53.421Z,13.76
2017-10-23T10:58:53.384Z,13.79
2017-10-23T10:59:53.375Z,13.87
2017-10-23T11:00:53.355Z,13.84
2017-10-23T11:01:53.330Z,13.9
2017-10-23T11:02:53.315Z,13.98
2017-10-23T11:03:53.296Z,13.87
2017-10-23T11:04:53.262Z,13.91
2017-10-23T11:05:53.240Z,14.01
2017-10-23T11:06:53.219Z,13.99
2017-10-23T11:07:53.254Z,14.02
2017-10-23T11:08:52.865Z,14.02
2017-10-23T11:09:53.149Z,14.06
2017-10-23T11:10:53.159Z,14.16
2017-10-23T11:11:53.107Z,14.09
2017-10-23T11:12:53.086Z,14.12
2017-10-23T11:13:53.086Z,14.09
2017-10-23T11:14:53.050Z,14.05
2017-10-23T11:15:53.030Z,13.98
2017-10-23T11:16:53.005Z,14.05
2017-10-23T11:17:52.976Z,13.94
2017-10-23T11:18:52.966Z,13.99
2017-10-23T11:19:52.934Z,13.93
2017-10-23T11:20:52.912Z,13.9
2017-10-23T11:21:52.609Z,13.83
2017-10-23T11:22:52.881Z,13.9
2017-10-23T11:23:52.844Z,13.83
2017-10-23T11:24:52.507Z,13.83
2017-10-23T11:25:52.501Z,13.84
2017-10-23T11:26:52.790Z,13.72
2017-10-23T11:27:52.776Z,13.72
2017-10-23T11:28:52.746Z,13.72
2017-10-23T11:29:52.722Z,13.71
2017-10-23T11:30:52.714Z,13.61
2017-10-23T11:31:52.436Z,13.63
2017-10-23T11:32:52.949Z,13.68
2017-10-23T11:33:52.646Z,13.75
2017-10-23T11:34:52.625Z,13.76
2017-10-23T11:35:52.673Z,13.81
2017-10-23T11:36:52.572Z,13.76
2017-10-23T11:37:52.566Z,13.83
2017-10-23T11:38:52.530Z,13.86
2017-10-23T11:39:52.511Z,14.01
2017-10-23T11:40:52.502Z,14.02
2017-10-23T11:41:52.468Z,14.06
2017-10-23T11:42:52.444Z,14.04
2017-10-23T11:43:52.435Z,14.04
2017-10-23T11:44:52.516Z,14.05
2017-10-23T11:45:52.439Z,14.09
2017-10-23T11:46:52.344Z,13.99
2017-10-23T11:47:52.370Z,14.01
2017-10-23T11:48:52.329Z,14.05
2017-10-23T11:49:52.283Z,13.98
2017-10-23T11:50:52.284Z,13.96
2017-10-23T11:51:52.265Z,13.99
2017-10-23T11:52:52.226Z,14.01
2017-10-23T11:53:52.201Z,14.04
2017-10-23T11:54:52.169Z,14.11
2017-10-23T11:55:52.183Z,14.06
2017-10-23T11:56:52.134Z,14.19
2017-10-23T11:57:51.854Z,14.27
2017-10-23T11:58:52.084Z,14.31
2017-10-23T11:59:52.095Z,14.31
2017-10-23T12:00:52.093Z,14.38
2017-10-23T12:01:52.039Z,14.49
2017-10-23T12:02:52.025Z,14.53
2017-10-23T12:03:51.762Z,14.54
2017-10-23T12:04:52.018Z,14.66
2017-10-23T12:05:51.969Z,14.57
2017-10-23T12:06:51.919Z,14.72
2017-10-23T12:07:51.929Z,14.72
2017-10-23T12:08:51.877Z,14.78
2017-10-23T12:09:51.555Z,14.78
2017-10-23T12:10:51.523Z,14.78
2017-10-23T12:11:51.878Z,14.72
2017-10-23T12:12:51.463Z,14.63
2017-10-23T12:13:51.787Z,14.61
2017-10-23T12:14:51.745Z,14.48
2017-10-23T12:15:51.760Z,14.42
2017-10-23T12:16:51.687Z,14.44
2017-10-23T12:17:51.714Z,14.42
2017-10-23T12:18:51.779Z,14.41
2017-10-23T12:19:51.327Z,14.39
2017-10-23T12:20:51.335Z,14.38
2017-10-23T12:21:51.662Z,14.29
2017-10-23T12:22:51.662Z,14.42
2017-10-23T12:23:51.264Z,14.35
2017-10-23T12:24:51.545Z,14.36
2017-10-23T12:25:51.235Z,14.46
2017-10-23T12:26:51.503Z,14.42
2017-10-23T12:27:51.484Z,14.35
2017-10-23T12:28:51.446Z,14.35
2017-10-23T12:29:51.413Z,14.38
2017-10-23T12:30:51.396Z,14.27
2017-10-23T12:31:51.376Z,14.24
2017-10-23T12:32:51.038Z,14.23
2017-10-23T12:33:51.335Z,14.26
2017-10-23T12:34:51.313Z,14.21
2017-10-23T12:35:51.294Z,14.2
2017-10-23T12:36:51.279Z,14.19
2017-10-23T12:37:51.248Z,14.3
2017-10-23T12:38:51.223Z,14.21
2017-10-23T12:39:51.208Z,14.2
2017-10-23T12:40:51.186Z,14.3
2017-10-23T12:41:50.847Z,14.29
2017-10-23T12:42:51.147Z,14.24
2017-10-23T12:43:51.117Z,14.3
2017-10-23T12:44:51.110Z,14.31
2017-10-23T12:45:51.103Z,14.3
2017-10-23T12:46:50.729Z,14.41
2017-10-23T12:47:51.037Z,14.46
2017-10-23T12:48:51.013Z,14.38
2017-10-23T12:49:50.988Z,14.41
2017-10-23T12:50:50.969Z,14.45
2017-10-23T12:51:50.949Z,14.41
2017-10-23T12:52:50.929Z,14.48
2017-10-23T12:53:50.913Z,14.45
2017-10-23T12:54:50.886Z,14.39
2017-10-23T12:55:50.878Z,14.44
2017-10-23T12:56:51.190Z,14.38
2017-10-23T12:57:50.819Z,14.31
2017-10-23T12:58:50.786Z,14.29
2017-10-23T12:59:50.770Z,14.23
2017-10-23T13:00:50.755Z,14.23
2017-10-23T13:01:50.739Z,14.16
2017-10-23T13:02:50.704Z,14.23